Time;durP1;ratioP1;P1;durP2;ratioP2;P2;SDS_P1;SDS_P2;PMS_P1;PMS_P2;Temp;Humidity;BMP_temperature;BMP_pressure;BME280_temperature;BME280_humidity;BME280_pressure;Samples;Min_cycle;Max_cycle;Signal;HPM_P1;HPM_P2
2023/01/01 00:02:23;;;;;;;41.78;8.35;;;;;;;;;;4930240;28;20070;-72
2023/01/01 00:04:48;;;;;;;34.25;6.95;;;;;;;;;;4929203;28;20032;-72
2023/01/01 00:07:15;;;;;;;26.75;6.28;;;;;;;;;;4930500;28;20133;-71
2023/01/01 00:12:25;;;;;;;43.13;7.45;;;;;;;;;;4984501;28;20167;-73
2023/01/01 00:14:53;;;;;;;34.30;6.63;;;;;;;;;;4931106;28;20039;-74
2023/01/01 00:17:21;;;;;;;33.13;6.82;;;;;;;;;;4994342;28;20063;-73
2023/01/01 00:19:46;;;;;;;26.95;5.88;;;;;;;;;;4931509;28;20617;-73
2023/01/01 00:22:11;;;;;;;29.85;6.13;;;;;;;;;;4931293;28;20054;-72
2023/01/01 00:24:38;;;;;;;31.83;6.53;;;;;;;;;;4994057;28;20350;-72
2023/01/01 00:27:04;;;;;;;25.73;6.75;;;;;;;;;;4931978;28;20039;-72
2023/01/01 00:29:30;;;;;;;32.00;6.22;;;;;;;;;;4995070;28;20085;-73
2023/01/01 00:31:56;;;;;;;37.17;6.90;;;;;;;;;;4932159;28;20054;-72
2023/01/01 00:34:21;;;;;;;25.58;5.95;;;;;;;;;;4931089;28;20455;-71
2023/01/01 00:36:47;;;;;;;27.35;5.95;;;;;;;;;;4932506;28;20630;-73
2023/01/01 00:39:14;;;;;;;25.10;5.60;;;;;;;;;;4943911;28;20611;-76
2023/01/01 00:41:40;;;;;;;29.25;6.03;;;;;;;;;;4945256;28;20172;-71
2023/01/01 00:44:06;;;;;;;31.10;5.80;;;;;;;;;;4945499;28;20042;-71
2023/01/01 00:46:31;;;;;;;24.15;5.85;;;;;;;;;;4943960;28;20424;-72
2023/01/01 00:48:57;;;;;;;23.67;5.88;;;;;;;;;;4927931;28;20414;-72
2023/01/01 00:51:24;;;;;;;28.38;6.50;;;;;;;;;;4926542;28;20510;-71
2023/01/01 00:53:52;;;;;;;33.58;6.93;;;;;;;;;;4927217;28;20268;-71
2023/01/01 00:56:20;;;;;;;30.80;7.57;;;;;;;;;;4975561;28;20297;-71
2023/01/01 00:58:45;;;;;;;33.22;7.63;;;;;;;;;;4992589;28;20425;-73
2023/01/01 01:01:10;;;;;;;29.45;7.60;;;;;;;;;;5008149;28;20416;-72
2023/01/01 01:03:39;;;;;;;37.00;8.05;;;;;;;;;;5007094;28;20042;-72
2023/01/01 01:06:04;;;;;;;40.28;10.20;;;;;;;;;;4990878;28;20062;-73
2023/01/01 01:08:31;;;;;;;38.17;8.98;;;;;;;;;;4927357;28;20517;-72
2023/01/01 01:11:06;;;;;;;36.30;8.05;;;;;;;;;;4926389;28;20146;-73
2023/01/01 01:13:31;;;;;;;34.92;8.43;;;;;;;;;;4927696;28;20451;-73
2023/01/01 01:15:57;;;;;;;39.15;8.60;;;;;;;;;;4994152;28;20520;-71
2023/01/01 01:18:22;;;;;;;40.83;8.60;;;;;;;;;;5024435;28;20037;-72
2023/01/01 01:20:48;;;;;;;37.78;8.10;;;;;;;;;;5024901;28;20560;-72
2023/01/01 01:23:13;;;;;;;34.85;8.45;;;;;;;;;;5023935;28;20029;-73
2023/01/01 01:25:39;;;;;;;36.72;7.97;;;;;;;;;;5025908;28;20029;-71
2023/01/01 01:28:06;;;;;;;39.15;9.32;;;;;;;;;;5007218;28;20033;-73
2023/01/01 01:30:31;;;;;;;40.13;7.68;;;;;;;;;;5025406;28;20029;-73
2023/01/01 01:32:57;;;;;;;49.53;8.63;;;;;;;;;;5008292;28;20486;-73
2023/01/01 01:35:22;;;;;;;44.22;8.95;;;;;;;;;;5025978;28;20211;-74
2023/01/01 01:37:48;;;;;;;37.13;7.70;;;;;;;;;;5007168;28;20056;-72
2023/01/01 01:40:16;;;;;;;33.58;6.90;;;;;;;;;;5006831;28;20142;-73
2023/01/01 01:42:47;;;;;;;48.35;7.45;;;;;;;;;;5025276;28;20527;-72
2023/01/01 01:45:12;;;;;;;36.08;7.47;;;;;;;;;;5024861;28;20029;-72
2023/01/01 01:48:00;;;;;;;29.75;6.50;;;;;;;;;;5008989;28;20029;-71
2023/01/01 01:50:31;;;;;;;20.67;5.35;;;;;;;;;;5018452;28;20430;-72
2023/01/01 01:53:02;;;;;;;24.67;6.20;;;;;;;;;;5023867;28;20035;-70
2023/01/01 01:55:29;;;;;;;31.77;6.57;;;;;;;;;;5003854;28;20797;-70
2023/01/01 01:57:55;;;;;;;31.08;6.57;;;;;;;;;;5003274;28;20475;-73
2023/01/01 02:00:20;;;;;;;29.20;6.88;;;;;;;;;;5004755;28;20034;-71
2023/01/01 02:02:48;;;;;;;33.45;7.13;;;;;;;;;;5005216;28;20025;-72
2023/01/01 02:05:14;;;;;;;24.40;6.53;;;;;;;;;;5004628;28;20079;-72
2023/01/01 02:07:40;;;;;;;28.67;7.00;;;;;;;;;;5006090;28;20794;-72
2023/01/01 02:10:06;;;;;;;23.55;6.43;;;;;;;;;;5005548;28;20068;-71
2023/01/01 02:12:31;;;;;;;27.25;6.15;;;;;;;;;;5004935;28;20033;-72
2023/01/01 02:14:56;;;;;;;30.85;6.45;;;;;;;;;;5004479;28;20096;-72
2023/01/01 02:17:25;;;;;;;32.70;6.70;;;;;;;;;;4928208;28;20052;-72
2023/01/01 02:20:17;;;;;;;30.50;6.30;;;;;;;;;;4906398;28;20432;-73
2023/01/01 02:23:00;;;;;;;40.33;7.85;;;;;;;;;;4913396;28;20050;-72
2023/01/01 02:25:28;;;;;;;38.28;7.55;;;;;;;;;;4907388;28;20089;-73
2023/01/01 02:28:03;;;;;;;37.83;7.25;;;;;;;;;;4909180;28;20031;-73
2023/01/01 02:30:31;;;;;;;34.95;7.80;;;;;;;;;;4906018;28;20625;-71
2023/01/01 02:33:10;;;;;;;44.97;8.10;;;;;;;;;;4906659;28;20040;-73
2023/01/01 02:35:41;;;;;;;40.63;7.53;;;;;;;;;;4919891;28;20023;-72
2023/01/01 02:38:08;;;;;;;40.72;7.80;;;;;;;;;;4927944;28;20028;-70
2023/01/01 02:40:37;;;;;;;45.13;8.48;;;;;;;;;;4906366;28;20035;-70
2023/01/01 02:43:08;;;;;;;52.35;8.88;;;;;;;;;;4926274;28;20416;-70
2023/01/01 02:45:34;;;;;;;50.20;8.75;;;;;;;;;;4926127;28;20360;-71
2023/01/01 02:48:05;;;;;;;52.00;9.68;;;;;;;;;;4887683;28;20524;-71
2023/01/01 02:50:31;;;;;;;42.60;8.60;;;;;;;;;;4906312;28;20032;-72
2023/01/01 02:53:02;;;;;;;48.72;8.00;;;;;;;;;;4905749;28;20653;-71
2023/01/01 02:55:31;;;;;;;54.55;9.63;;;;;;;;;;4906748;28;20042;-71
2023/01/01 03:01:08;;;;;;;45.92;8.38;;;;;;;;;;4904009;28;20332;-71
2023/01/01 03:03:36;;;;;;;52.30;9.52;;;;;;;;;;4905146;28;20039;-72
2023/01/01 03:06:22;;;;;;;52.90;9.75;;;;;;;;;;4904666;28;20032;-72
2023/01/01 03:08:52;;;;;;;49.63;8.85;;;;;;;;;;4905300;28;20465;-71
2023/01/01 03:11:18;;;;;;;50.10;11.02;;;;;;;;;;4888604;28;20635;-72
2023/01/01 03:13:50;;;;;;;52.38;9.45;;;;;;;;;;4904529;28;20202;-73
2023/01/01 03:16:36;;;;;;;63.75;9.77;;;;;;;;;;4907864;28;20443;-70
2023/01/01 03:19:11;;;;;;;50.85;9.30;;;;;;;;;;4923099;28;20050;-71
2023/01/01 03:21:56;;;;;;;54.30;10.05;;;;;;;;;;4922470;28;20062;-71
2023/01/01 03:24:40;;;;;;;58.17;9.73;;;;;;;;;;4913822;28;20035;-72
2023/01/01 03:27:14;;;;;;;53.78;8.52;;;;;;;;;;4922557;28;20038;-70
2023/01/01 03:29:41;;;;;;;52.30;8.70;;;;;;;;;;4905216;28;20186;-72
2023/01/01 03:32:07;;;;;;;55.08;10.55;;;;;;;;;;4906423;28;20051;-71
2023/01/01 03:34:36;;;;;;;52.45;9.52;;;;;;;;;;4939380;28;20114;-72
2023/01/01 03:37:05;;;;;;;50.90;8.00;;;;;;;;;;4943050;28;20417;-70
2023/01/01 03:39:33;;;;;;;53.92;9.38;;;;;;;;;;4942382;28;20424;-70
2023/01/01 03:42:17;;;;;;;63.88;9.63;;;;;;;;;;4941236;28;20039;-70
2023/01/01 03:44:46;;;;;;;61.65;10.57;;;;;;;;;;4942005;28;20116;-72
2023/01/01 03:47:12;;;;;;;55.78;10.32;;;;;;;;;;4942041;28;20035;-71
2023/01/01 03:49:37;;;;;;;51.65;8.57;;;;;;;;;;4942944;28;20046;-71
2023/01/01 03:52:18;;;;;;;52.10;9.52;;;;;;;;;;4941584;28;20035;-71
2023/01/01 03:54:43;;;;;;;62.42;9.55;;;;;;;;;;4941114;28;20060;-70
2023/01/01 03:57:17;;;;;;;52.13;8.82;;;;;;;;;;4941876;28;20319;-71
2023/01/01 04:00:06;;;;;;;41.80;7.28;;;;;;;;;;4941106;28;20035;-73
2023/01/01 04:02:40;;;;;;;38.03;6.53;;;;;;;;;;4936462;28;20448;-72
2023/01/01 04:05:06;;;;;;;49.40;7.55;;;;;;;;;;4923540;28;20130;-72
2023/01/01 04:07:32;;;;;;;51.13;7.35;;;;;;;;;;4925630;28;20030;-72
2023/01/01 04:10:15;;;;;;;50.95;8.18;;;;;;;;;;4942168;28;20042;-72
2023/01/01 04:12:41;;;;;;;49.93;8.33;;;;;;;;;;4923863;28;20134;-72
2023/01/01 04:15:07;;;;;;;41.83;7.63;;;;;;;;;;4941306;28;20794;-73
2023/01/01 04:17:32;;;;;;;51.17;8.20;;;;;;;;;;4941379;28;20109;-72
2023/01/01 04:19:57;;;;;;;45.67;7.80;;;;;;;;;;4924097;28;20035;-72
2023/01/01 04:22:25;;;;;;;52.88;8.55;;;;;;;;;;4938954;28;20039;-71
2023/01/01 04:24:50;;;;;;;52.38;8.07;;;;;;;;;;4941043;28;20108;-71
2023/01/01 04:27:15;;;;;;;46.60;9.18;;;;;;;;;;4926947;28;20043;-71
2023/01/01 04:29:46;;;;;;;42.03;7.35;;;;;;;;;;4943739;28;20527;-71
2023/01/01 04:32:13;;;;;;;47.20;7.00;;;;;;;;;;4942552;28;20532;-70
2023/01/01 04:34:39;;;;;;;45.67;7.45;;;;;;;;;;4911089;28;20508;-71
2023/01/01 04:37:04;;;;;;;42.90;7.10;;;;;;;;;;4944541;28;20307;-71
2023/01/01 04:39:29;;;;;;;53.67;8.32;;;;;;;;;;4944496;28;20035;-70
2023/01/01 04:41:54;;;;;;;51.05;6.95;;;;;;;;;;4944003;28;20043;-71
2023/01/01 04:44:22;;;;;;;43.08;8.50;;;;;;;;;;4944373;28;20465;-69
2023/01/01 04:46:47;;;;;;;50.83;8.18;;;;;;;;;;4943700;28;20067;-70
2023/01/01 04:49:13;;;;;;;47.38;7.28;;;;;;;;;;4943462;28;20508;-71
2023/01/01 04:51:38;;;;;;;48.10;8.07;;;;;;;;;;4926539;28;20137;-70
2023/01/01 04:54:03;;;;;;;49.28;8.50;;;;;;;;;;4942930;28;20116;-70
2023/01/01 04:56:28;;;;;;;43.92;7.78;;;;;;;;;;4942922;28;20049;-72
2023/01/01 04:58:56;;;;;;;55.95;8.15;;;;;;;;;;4943760;28;20342;-71
2023/01/01 05:01:28;;;;;;;46.15;7.07;;;;;;;;;;4944026;28;20422;-72
2023/01/01 05:03:53;;;;;;;50.97;8.13;;;;;;;;;;4943656;28;20219;-73
2023/01/01 05:06:21;;;;;;;52.08;8.20;;;;;;;;;;4943611;28;20035;-70
2023/01/01 05:08:48;;;;;;;45.42;7.18;;;;;;;;;;4942508;28;20023;-70
2023/01/01 05:11:16;;;;;;;49.95;7.40;;;;;;;;;;4924653;28;20075;-71
2023/01/01 05:13:44;;;;;;;38.47;6.80;;;;;;;;;;4942360;28;20108;-69
2023/01/01 05:16:12;;;;;;;52.17;7.00;;;;;;;;;;4942247;28;20049;-70
2023/01/01 05:18:38;;;;;;;45.55;7.05;;;;;;;;;;4942364;28;20415;-71
2023/01/01 05:21:08;;;;;;;46.00;6.53;;;;;;;;;;4942557;28;20031;-72
2023/01/01 05:23:35;;;;;;;50.10;7.43;;;;;;;;;;4942432;28;20035;-71
2023/01/01 05:26:10;;;;;;;51.10;7.00;;;;;;;;;;4924728;28;20038;-71
2023/01/01 05:28:40;;;;;;;42.90;6.78;;;;;;;;;;4942706;28;20083;-69
2023/01/01 05:31:09;;;;;;;53.65;7.65;;;;;;;;;;4942022;28;20533;-70
2023/01/01 05:33:35;;;;;;;47.60;7.88;;;;;;;;;;4943272;28;20060;-69
2023/01/01 05:36:01;;;;;;;61.80;9.35;;;;;;;;;;4941552;28;20043;-68
2023/01/01 05:38:26;;;;;;;61.15;8.98;;;;;;;;;;4926156;28;20408;-71
2023/01/01 05:40:53;;;;;;;59.70;8.85;;;;;;;;;;4942781;28;20222;-71
2023/01/01 05:43:19;;;;;;;57.53;7.78;;;;;;;;;;4942715;28;20042;-71
2023/01/01 05:45:47;;;;;;;42.92;7.72;;;;;;;;;;4943363;28;20524;-69
2023/01/01 05:48:13;;;;;;;52.42;8.95;;;;;;;;;;4926733;28;20046;-71
2023/01/01 05:50:38;;;;;;;48.50;8.45;;;;;;;;;;4925817;28;20233;-71
2023/01/01 05:53:04;;;;;;;59.25;8.80;;;;;;;;;;4925777;28;20470;-71
2023/01/01 05:55:31;;;;;;;59.28;8.50;;;;;;;;;;4924571;28;20422;-70
2023/01/01 05:57:57;;;;;;;57.85;9.23;;;;;;;;;;4924221;28;20130;-70
2023/01/01 06:00:24;;;;;;;53.45;8.18;;;;;;;;;;4925431;28;20043;-70
2023/01/01 06:02:50;;;;;;;57.22;8.55;;;;;;;;;;4925464;28;20346;-70
2023/01/01 06:05:16;;;;;;;47.97;7.93;;;;;;;;;;4924031;28;20694;-72
2023/01/01 06:07:44;;;;;;;61.83;8.32;;;;;;;;;;4925068;28;20247;-70
2023/01/01 06:10:09;;;;;;;52.15;8.95;;;;;;;;;;4907329;28;20617;-73
2023/01/01 06:12:35;;;;;;;52.25;8.05;;;;;;;;;;4926844;28;20035;-70
2023/01/01 06:15:00;;;;;;;71.22;9.27;;;;;;;;;;4926515;28;20036;-72
2023/01/01 06:17:25;;;;;;;60.50;8.98;;;;;;;;;;4925460;28;20074;-71
2023/01/01 06:19:50;;;;;;;51.53;8.68;;;;;;;;;;4925443;28;20114;-71
2023/01/01 06:22:18;;;;;;;51.72;8.65;;;;;;;;;;4923364;28;20040;-69
2023/01/01 06:24:43;;;;;;;54.88;8.20;;;;;;;;;;4927081;28;20047;-69
2023/01/01 06:27:09;;;;;;;60.28;9.00;;;;;;;;;;4925511;28;20267;-71
2023/01/01 06:29:34;;;;;;;51.80;7.38;;;;;;;;;;4932445;28;20039;-70
2023/01/01 06:32:00;;;;;;;49.33;7.68;;;;;;;;;;4924912;28;20041;-71
2023/01/01 06:34:27;;;;;;;46.92;7.55;;;;;;;;;;4940298;28;20167;-71
2023/01/01 06:36:52;;;;;;;57.05;8.02;;;;;;;;;;4924096;28;20046;-71
2023/01/01 06:39:18;;;;;;;48.35;7.78;;;;;;;;;;4945451;28;20046;-70
2023/01/01 06:41:43;;;;;;;54.20;8.93;;;;;;;;;;4943861;28;20107;-71
2023/01/01 06:44:09;;;;;;;72.03;8.93;;;;;;;;;;4942548;28;20035;-70
2023/01/01 06:46:34;;;;;;;53.60;8.23;;;;;;;;;;4949400;28;20129;-69
2023/01/01 06:49:01;;;;;;;48.92;8.32;;;;;;;;;;4940321;28;20035;-71
2023/01/01 06:51:28;;;;;;;56.42;8.95;;;;;;;;;;5007619;28;20046;-70
2023/01/01 06:53:57;;;;;;;54.95;7.68;;;;;;;;;;4941117;28;20504;-70
2023/01/01 06:56:26;;;;;;;49.00;7.72;;;;;;;;;;4941471;28;20058;-71
2023/01/01 06:58:51;;;;;;;49.38;6.68;;;;;;;;;;4942306;28;20034;-71
2023/01/01 07:01:20;;;;;;;50.75;6.65;;;;;;;;;;4941485;28;20250;-70
2023/01/01 07:03:52;;;;;;;62.67;6.93;;;;;;;;;;4941401;28;20440;-71
2023/01/01 07:06:17;;;;;;;48.65;7.07;;;;;;;;;;4944411;28;20070;-70
2023/01/01 07:08:43;;;;;;;59.13;7.15;;;;;;;;;;4942271;28;20129;-70
2023/01/01 07:11:08;;;;;;;56.67;7.32;;;;;;;;;;4941569;28;20039;-70
2023/01/01 07:13:36;;;;;;;51.05;8.02;;;;;;;;;;4923354;28;20400;-70
2023/01/01 07:16:01;;;;;;;51.83;7.60;;;;;;;;;;4940505;28;20117;-70
2023/01/01 07:18:30;;;;;;;49.05;7.03;;;;;;;;;;4942111;28;20146;-70
2023/01/01 07:20:57;;;;;;;47.78;6.72;;;;;;;;;;4941499;28;20040;-71
2023/01/01 07:23:23;;;;;;;45.58;6.93;;;;;;;;;;4923931;28;20058;-69
2023/01/01 07:25:49;;;;;;;51.80;6.60;;;;;;;;;;4941484;28;20397;-71
2023/01/01 07:28:14;;;;;;;55.22;7.63;;;;;;;;;;4941555;28;20027;-69
2023/01/01 07:30:40;;;;;;;52.75;7.93;;;;;;;;;;4940328;28;20559;-69
2023/01/01 07:33:05;;;;;;;66.45;8.27;;;;;;;;;;4942936;28;20066;-71
2023/01/01 07:35:31;;;;;;;63.40;9.40;;;;;;;;;;4940775;28;20493;-70
2023/01/01 07:37:59;;;;;;;70.40;9.52;;;;;;;;;;4941043;28;20694;-69
2023/01/01 07:40:24;;;;;;;64.35;8.43;;;;;;;;;;4923982;28;20039;-71
2023/01/01 07:42:49;;;;;;;59.90;9.75;;;;;;;;;;4940354;28;20484;-70
2023/01/01 07:45:15;;;;;;;77.13;10.98;;;;;;;;;;4923851;28;20142;-71
2023/01/01 07:47:40;;;;;;;69.22;9.85;;;;;;;;;;4995894;28;20039;-71
2023/01/01 07:50:05;;;;;;;62.60;9.40;;;;;;;;;;4941456;28;20044;-69
2023/01/01 07:52:30;;;;;;;71.30;9.93;;;;;;;;;;4942767;28;20129;-69
2023/01/01 07:54:56;;;;;;;64.72;10.10;;;;;;;;;;4941352;28;20062;-70
2023/01/01 07:57:21;;;;;;;53.53;8.50;;;;;;;;;;4940440;28;20540;-71
2023/01/01 07:59:49;;;;;;;65.40;9.70;;;;;;;;;;4943185;28;20038;-71
2023/01/01 08:02:17;;;;;;;68.88;8.70;;;;;;;;;;4943240;28;20042;-71
2023/01/01 08:04:42;;;;;;;61.97;8.63;;;;;;;;;;5009640;28;20096;-70
2023/01/01 08:07:08;;;;;;;68.63;9.88;;;;;;;;;;4943566;28;20038;-71
2023/01/01 08:09:33;;;;;;;56.20;7.82;;;;;;;;;;4943485;28;20537;-70
2023/01/01 08:11:59;;;;;;;63.92;8.27;;;;;;;;;;4943807;28;20035;-70
2023/01/01 08:14:28;;;;;;;55.45;9.85;;;;;;;;;;4943292;28;20034;-70
2023/01/01 08:16:54;;;;;;;64.65;8.77;;;;;;;;;;4943286;28;20046;-69
2023/01/01 08:19:19;;;;;;;64.95;8.93;;;;;;;;;;4942871;28;20046;-70
2023/01/01 08:21:44;;;;;;;61.10;8.98;;;;;;;;;;4944011;28;20077;-70
2023/01/01 08:24:09;;;;;;;79.10;9.10;;;;;;;;;;4943236;28;20034;-70
2023/01/01 08:26:35;;;;;;;64.80;9.23;;;;;;;;;;4944646;28;20031;-70
2023/01/01 08:29:06;;;;;;;60.88;8.82;;;;;;;;;;4944543;28;20531;-70
2023/01/01 08:31:32;;;;;;;67.03;8.73;;;;;;;;;;4944215;28;20283;-70
2023/01/01 08:33:57;;;;;;;67.30;8.05;;;;;;;;;;4910558;28;20031;-70
2023/01/01 08:36:23;;;;;;;62.28;8.40;;;;;;;;;;4942939;28;20836;-71
2023/01/01 08:38:48;;;;;;;67.13;9.20;;;;;;;;;;4945353;28;20065;-72
2023/01/01 08:41:14;;;;;;;64.97;9.18;;;;;;;;;;4944284;28;20058;-70
2023/01/01 08:43:39;;;;;;;63.03;9.27;;;;;;;;;;4944699;28;20442;-70
2023/01/01 08:46:07;;;;;;;62.60;9.35;;;;;;;;;;4943653;28;20116;-72
2023/01/01 08:48:32;;;;;;;68.97;9.77;;;;;;;;;;4925834;28;20443;-70
2023/01/01 08:50:59;;;;;;;61.10;7.97;;;;;;;;;;4943847;28;20041;-71
2023/01/01 08:53:25;;;;;;;64.55;8.75;;;;;;;;;;4945433;28;20085;-70
2023/01/01 08:55:56;;;;;;;58.22;9.10;;;;;;;;;;4943033;28;20042;-70
2023/01/01 08:58:21;;;;;;;60.92;9.23;;;;;;;;;;4942157;28;20027;-69
2023/01/01 09:00:47;;;;;;;50.13;6.93;;;;;;;;;;4941901;28;20119;-70
2023/01/01 09:03:12;;;;;;;47.45;7.05;;;;;;;;;;4925562;28;20027;-70
2023/01/01 09:05:37;;;;;;;43.25;6.75;;;;;;;;;;4929862;28;20027;-69
2023/01/01 09:08:03;;;;;;;38.38;5.68;;;;;;;;;;4926523;28;20046;-70
2023/01/01 09:10:28;;;;;;;46.55;6.85;;;;;;;;;;4943350;28;20536;-70
2023/01/01 09:12:54;;;;;;;43.30;6.53;;;;;;;;;;4942305;28;20087;-70
2023/01/01 09:15:24;;;;;;;32.95;5.93;;;;;;;;;;4925893;28;20112;-71
2023/01/01 09:17:49;;;;;;;44.42;7.03;;;;;;;;;;4946224;28;20081;-70
2023/01/01 09:20:15;;;;;;;47.17;6.30;;;;;;;;;;4926967;28;20034;-70
2023/01/01 09:22:43;;;;;;;43.92;7.38;;;;;;;;;;4942275;28;20035;-70
2023/01/01 09:25:10;;;;;;;37.35;5.85;;;;;;;;;;4942528;28;20039;-70
2023/01/01 09:27:36;;;;;;;40.33;6.28;;;;;;;;;;4925347;28;20420;-69
2023/01/01 09:30:01;;;;;;;43.40;5.93;;;;;;;;;;4941564;28;20050;-70
2023/01/01 09:32:26;;;;;;;31.02;5.35;;;;;;;;;;4941888;28;20145;-70
2023/01/01 09:34:56;;;;;;;35.35;5.30;;;;;;;;;;4941716;28;20038;-70
2023/01/01 09:37:23;;;;;;;43.15;7.15;;;;;;;;;;4924370;28;20507;-70
2023/01/01 09:39:49;;;;;;;35.15;5.15;;;;;;;;;;4942743;28;20030;-70
2023/01/01 09:42:32;;;;;;;39.63;6.10;;;;;;;;;;4941294;28;20034;-71
2023/01/01 09:45:16;;;;;;;32.50;4.78;;;;;;;;;;4941825;28;20027;-70
2023/01/01 09:47:58;;;;;;;41.53;6.78;;;;;;;;;;4944177;28;20042;-72
2023/01/01 09:50:34;;;;;;;35.17;5.05;;;;;;;;;;4946626;28;20365;-73
2023/01/01 09:53:03;;;;;;;40.28;4.97;;;;;;;;;;4944142;28;20027;-71
2023/01/01 09:55:47;;;;;;;35.78;5.75;;;;;;;;;;4944487;28;20057;-70
2023/01/01 09:58:16;;;;;;;37.42;5.70;;;;;;;;;;4943537;28;20626;-70
2023/01/01 10:00:48;;;;;;;39.28;5.65;;;;;;;;;;4944394;28;20027;-71
2023/01/01 10:03:33;;;;;;;39.35;4.65;;;;;;;;;;4940268;28;20729;-71
2023/01/01 10:06:18;;;;;;;32.50;5.07;;;;;;;;;;4920437;28;20035;-70
2023/01/01 10:08:49;;;;;;;38.17;5.28;;;;;;;;;;4941916;28;20156;-72
2023/01/01 10:11:19;;;;;;;34.88;5.55;;;;;;;;;;4942255;28;20300;-69
2023/01/01 10:13:45;;;;;;;29.42;4.60;;;;;;;;;;4941745;28;20045;-71
2023/01/01 10:16:19;;;;;;;26.88;4.18;;;;;;;;;;4943200;28;20038;-72
2023/01/01 10:18:46;;;;;;;28.90;4.55;;;;;;;;;;4941406;28;20034;-71
2023/01/01 10:21:30;;;;;;;27.15;4.78;;;;;;;;;;4925579;28;20041;-72
2023/01/01 10:24:02;;;;;;;28.65;4.10;;;;;;;;;;4942272;28;20027;-72
2023/01/01 10:26:31;;;;;;;34.28;5.28;;;;;;;;;;4942464;28;20030;-71
2023/01/01 10:28:57;;;;;;;32.90;4.18;;;;;;;;;;4924770;28;20031;-70
2023/01/01 10:31:29;;;;;;;30.65;4.85;;;;;;;;;;4942069;28;20221;-70
2023/01/01 10:33:54;;;;;;;28.98;4.13;;;;;;;;;;4920777;28;20043;-71
2023/01/01 10:36:20;;;;;;;33.13;5.65;;;;;;;;;;4942673;28;20070;-69
2023/01/01 10:38:46;;;;;;;31.10;4.90;;;;;;;;;;4942820;28;20076;-72
2023/01/01 10:41:16;;;;;;;27.42;4.32;;;;;;;;;;4943286;28;22258;-71
2023/01/01 10:43:41;;;;;;;27.50;4.68;;;;;;;;;;4924308;28;20749;-72
2023/01/01 10:46:17;;;;;;;23.42;3.88;;;;;;;;;;4941740;28;20054;-70
2023/01/01 10:49:02;;;;;;;28.95;3.78;;;;;;;;;;4942370;28;20509;-71
2023/01/01 10:51:27;;;;;;;28.58;4.10;;;;;;;;;;4941833;28;20187;-70
2023/01/01 10:53:54;;;;;;;31.45;4.28;;;;;;;;;;4943114;28;20031;-71
2023/01/01 10:56:27;;;;;;;23.63;3.58;;;;;;;;;;4941225;28;20054;-71
2023/01/01 10:58:57;;;;;;;21.80;4.43;;;;;;;;;;4941361;28;20035;-70
2023/01/01 11:01:30;;;;;;;23.23;3.97;;;;;;;;;;4940400;28;20138;-72
2023/01/01 11:04:06;;;;;;;29.05;3.88;;;;;;;;;;4926241;28;20125;-70
2023/01/01 11:06:34;;;;;;;30.92;3.78;;;;;;;;;;4942789;28;20039;-70
2023/01/01 11:09:02;;;;;;;22.23;3.88;;;;;;;;;;4941453;28;20373;-71
2023/01/01 11:11:31;;;;;;;24.30;4.50;;;;;;;;;;4940917;28;20645;-72
2023/01/01 11:14:00;;;;;;;25.52;4.07;;;;;;;;;;4924475;28;20497;-69
2023/01/01 11:16:28;;;;;;;25.38;3.97;;;;;;;;;;4924584;28;20405;-71
2023/01/01 11:19:01;;;;;;;30.83;3.97;;;;;;;;;;4943856;28;20630;-73
2023/01/01 11:21:29;;;;;;;29.75;4.20;;;;;;;;;;4941750;28;20031;-70
2023/01/01 11:24:20;;;;;;;30.17;4.25;;;;;;;;;;4940064;28;20415;-70
2023/01/01 11:26:49;;;;;;;22.27;3.97;;;;;;;;;;4942235;28;20538;-71
2023/01/01 11:29:14;;;;;;;25.13;4.82;;;;;;;;;;4941641;28;20645;-71
2023/01/01 11:31:40;;;;;;;28.45;5.05;;;;;;;;;;4941231;28;20289;-70
2023/01/01 11:34:19;;;;;;;26.42;4.57;;;;;;;;;;4941903;28;20580;-70
2023/01/01 11:36:47;;;;;;;31.08;4.50;;;;;;;;;;4945295;28;20121;-70
2023/01/01 11:39:25;;;;;;;28.48;4.82;;;;;;;;;;4926957;28;20042;-70
2023/01/01 11:41:51;;;;;;;28.15;5.43;;;;;;;;;;4926958;28;20039;-71
2023/01/01 11:44:22;;;;;;;33.63;4.97;;;;;;;;;;4945290;28;20122;-72
2023/01/01 11:46:48;;;;;;;31.63;4.97;;;;;;;;;;4944465;28;20390;-72
2023/01/01 11:49:21;;;;;;;32.95;5.35;;;;;;;;;;4943547;28;20493;-70
2023/01/01 11:51:47;;;;;;;38.80;6.00;;;;;;;;;;4943860;28;20030;-69
2023/01/01 11:54:22;;;;;;;31.38;4.63;;;;;;;;;;4943412;28;20035;-71
2023/01/01 11:56:52;;;;;;;30.65;5.40;;;;;;;;;;4943597;28;20561;-70
2023/01/01 11:59:20;;;;;;;37.95;4.97;;;;;;;;;;4942629;28;20050;-70
2023/01/01 12:01:46;;;;;;;31.00;4.70;;;;;;;;;;4942899;28;20084;-71
2023/01/01 12:04:12;;;;;;;30.45;4.60;;;;;;;;;;4926418;28;20507;-70
2023/01/01 12:06:44;;;;;;;35.90;5.53;;;;;;;;;;4943084;28;20030;-70
2023/01/01 12:09:09;;;;;;;26.58;4.50;;;;;;;;;;4943149;28;20031;-68
2023/01/01 12:11:45;;;;;;;23.80;4.43;;;;;;;;;;4942709;28;20132;-71
2023/01/01 12:14:32;;;;;;;32.92;5.03;;;;;;;;;;4947177;28;20394;-70
2023/01/01 12:17:04;;;;;;;22.73;4.20;;;;;;;;;;4942231;28;20442;-70
2023/01/01 12:19:40;;;;;;;28.88;4.50;;;;;;;;;;4942591;28;20587;-69
2023/01/01 12:22:10;;;;;;;26.13;4.38;;;;;;;;;;4942905;28;20030;-68
2023/01/01 12:24:35;;;;;;;25.98;5.60;;;;;;;;;;4942615;28;20099;-71
2023/01/01 12:27:13;;;;;;;30.35;4.93;;;;;;;;;;4925491;28;20451;-70
2023/01/01 12:29:53;;;;;;;31.30;4.90;;;;;;;;;;4942403;28;20030;-69
2023/01/01 12:32:25;;;;;;;27.02;4.25;;;;;;;;;;4942641;28;20058;-69
2023/01/01 12:34:59;;;;;;;26.45;4.70;;;;;;;;;;4942842;28;20035;-69
2023/01/01 12:37:27;;;;;;;22.98;3.85;;;;;;;;;;4942724;28;20595;-70
2023/01/01 12:40:14;;;;;;;26.38;4.18;;;;;;;;;;4941034;28;20035;-72
2023/01/01 12:42:39;;;;;;;31.33;4.80;;;;;;;;;;4925505;28;20031;-69
2023/01/01 12:45:14;;;;;;;33.58;5.03;;;;;;;;;;4941445;28;20035;-70
2023/01/01 12:47:57;;;;;;;31.92;4.70;;;;;;;;;;4940758;28;20035;-70
2023/01/01 12:50:25;;;;;;;23.75;4.47;;;;;;;;;;4942214;28;20031;-69
2023/01/01 12:52:59;;;;;;;30.38;4.97;;;;;;;;;;4941412;28;20042;-70
2023/01/01 12:55:28;;;;;;;33.78;5.10;;;;;;;;;;4941936;28;20046;-70
2023/01/01 12:57:53;;;;;;;27.40;4.38;;;;;;;;;;4941527;28;20592;-71
2023/01/01 13:00:19;;;;;;;30.85;5.10;;;;;;;;;;4924401;28;20039;-70
2023/01/01 13:02:51;;;;;;;28.50;4.55;;;;;;;;;;4940281;28;20507;-71
2023/01/01 13:05:25;;;;;;;28.50;4.82;;;;;;;;;;4940482;28;20236;-70
2023/01/01 13:07:56;;;;;;;24.63;4.55;;;;;;;;;;4942159;28;20030;-70
2023/01/01 13:10:24;;;;;;;38.33;5.23;;;;;;;;;;4942023;28;20373;-71
2023/01/01 13:12:50;;;;;;;28.77;4.55;;;;;;;;;;4941113;28;20123;-72
2023/01/01 13:15:37;;;;;;;26.83;4.50;;;;;;;;;;4942002;28;20134;-71
2023/01/01 13:18:24;;;;;;;32.03;5.35;;;;;;;;;;4941217;28;20756;-69
2023/01/01 13:20:52;;;;;;;36.40;4.85;;;;;;;;;;4941380;28;20119;-69
2023/01/01 13:23:41;;;;;;;38.85;4.53;;;;;;;;;;4923606;28;20493;-71
2023/01/01 13:26:24;;;;;;;30.10;4.57;;;;;;;;;;4946686;28;20039;-70
2023/01/01 13:28:59;;;;;;;33.63;5.22;;;;;;;;;;4941956;28;20625;-70
2023/01/01 13:31:37;;;;;;;23.58;3.60;;;;;;;;;;4941720;28;20540;-69
2023/01/01 13:34:23;;;;;;;34.50;4.60;;;;;;;;;;4924220;28;20056;-70
2023/01/01 13:36:49;;;;;;;27.88;4.45;;;;;;;;;;4941327;28;20047;-69
2023/01/01 13:39:36;;;;;;;25.67;3.97;;;;;;;;;;4942085;28;20031;-70
2023/01/01 13:42:01;;;;;;;32.78;5.53;;;;;;;;;;4941406;28;20043;-71
2023/01/01 13:44:27;;;;;;;24.60;4.38;;;;;;;;;;4941052;28;20050;-71
2023/01/01 13:47:01;;;;;;;27.55;3.75;;;;;;;;;;4941210;28;20045;-69
2023/01/01 13:49:47;;;;;;;24.75;4.40;;;;;;;;;;4941664;28;20524;-70
2023/01/01 13:52:22;;;;;;;26.88;4.18;;;;;;;;;;4944313;28;20042;-69
2023/01/01 13:54:56;;;;;;;27.63;4.60;;;;;;;;;;4925848;28;20600;-69
2023/01/01 13:57:36;;;;;;;33.95;4.80;;;;;;;;;;4922206;28;20063;-70
2023/01/01 14:00:04;;;;;;;30.88;4.10;;;;;;;;;;4922468;28;20046;-71
2023/01/01 14:02:34;;;;;;;25.30;4.38;;;;;;;;;;4920813;28;20070;-70
2023/01/01 14:05:20;;;;;;;32.47;5.05;;;;;;;;;;4922134;28;20039;-70
2023/01/01 14:07:50;;;;;;;24.73;3.80;;;;;;;;;;4922325;28;20218;-70
2023/01/01 14:10:21;;;;;;;25.02;3.72;;;;;;;;;;4920747;28;20034;-70
2023/01/01 14:12:47;;;;;;;22.85;4.45;;;;;;;;;;4921559;28;20063;-69
2023/01/01 14:15:24;;;;;;;24.83;3.53;;;;;;;;;;4921321;28;20158;-71
2023/01/01 14:17:51;;;;;;;20.95;3.25;;;;;;;;;;4923528;28;20058;-70
2023/01/01 14:20:17;;;;;;;24.75;4.53;;;;;;;;;;4941258;28;20039;-70
2023/01/01 14:22:44;;;;;;;22.52;3.78;;;;;;;;;;4924319;28;20126;-70
2023/01/01 14:25:19;;;;;;;18.15;3.35;;;;;;;;;;4941596;28;20096;-72
2023/01/01 14:27:44;;;;;;;26.23;3.83;;;;;;;;;;4939208;28;20066;-69
2023/01/01 14:30:16;;;;;;;18.10;3.85;;;;;;;;;;4941053;28;20039;-69
2023/01/01 14:32:41;;;;;;;23.45;4.88;;;;;;;;;;4940859;28;20118;-70
2023/01/01 14:35:16;;;;;;;34.70;7.00;;;;;;;;;;4941088;28;20036;-70
2023/01/01 14:37:44;;;;;;;25.88;7.57;;;;;;;;;;4940500;28;20045;-69
2023/01/01 14:40:29;;;;;;;29.95;8.93;;;;;;;;;;4923361;28;20035;-70
2023/01/01 14:43:03;;;;;;;23.95;7.03;;;;;;;;;;4940606;28;20038;-72
2023/01/01 14:45:31;;;;;;;24.05;7.55;;;;;;;;;;4940882;28;20023;-69
2023/01/01 14:47:56;;;;;;;29.40;8.60;;;;;;;;;;4919431;28;20131;-72